createdAt,value
2018-01-16T00:00:39.398Z,6.41
2018-01-16T00:01:39.317Z,6.47
2018-01-16T00:02:39.236Z,6.26
2018-01-16T00:03:39.155Z,6.30
2018-01-16T00:04:39.075Z,6.29
2018-01-16T00:05:38.994Z,6.33
2018-01-16T00:06:38.914Z,6.26
2018-01-16T00:07:38.833Z,6.32
2018-01-16T00:08:38.755Z,6.36
2018-01-16T00:09:38.673Z,6.33
2018-01-16T00:10:38.590Z,6.36
2018-01-16T00:11:38.510Z,6.36
2018-01-16T00:12:38.431Z,6.27
2018-01-16T00:13:38.351Z,6.26
2018-01-16T00:14:38.269Z,6.27
2018-01-16T00:15:38.190Z,6.33
2018-01-16T00:16:38.109Z,6.48
2018-01-16T00:17:38.028Z,6.50
2018-01-16T00:18:37.948Z,6.44
2018-01-16T00:19:37.866Z,6.45
2018-01-16T00:20:37.787Z,6.34
2018-01-16T00:21:37.706Z,6.36
2018-01-16T00:22:37.626Z,6.32
2018-01-16T00:23:37.545Z,6.36
2018-01-16T00:24:37.465Z,6.36
2018-01-16T00:25:37.385Z,6.41
2018-01-16T00:26:37.304Z,6.39
2018-01-16T00:27:37.223Z,6.59
2018-01-16T00:28:37.144Z,6.51
2018-01-16T00:29:37.065Z,6.55
2018-01-16T00:30:36.982Z,6.59
2018-01-16T00:31:36.902Z,6.65
2018-01-16T00:32:36.821Z,6.51
2018-01-16T00:33:36.740Z,6.52
2018-01-16T00:34:36.661Z,6.41
2018-01-16T00:35:36.580Z,6.36
2018-01-16T00:36:36.500Z,6.42
2018-01-16T00:37:36.420Z,6.45
2018-01-16T00:38:36.340Z,6.50
2018-01-16T00:39:36.259Z,6.57
2018-01-16T00:40:36.178Z,6.57
2018-01-16T00:41:36.100Z,6.62
2018-01-16T00:42:36.018Z,6.66
2018-01-16T00:43:35.938Z,6.63
2018-01-16T00:44:35.858Z,6.66
2018-01-16T00:45:35.778Z,6.66
2018-01-16T00:46:35.697Z,6.70
2018-01-16T00:47:35.618Z,6.66
2018-01-16T00:48:35.538Z,6.50
2018-01-16T00:49:35.508Z,6.55
2018-01-16T00:50:35.376Z,6.51
2018-01-16T00:51:35.296Z,6.41
2018-01-16T00:52:35.216Z,6.42
2018-01-16T00:53:35.137Z,6.50
2018-01-16T00:54:35.055Z,6.52
2018-01-16T00:55:34.976Z,6.37
2018-01-16T00:56:34.895Z,6.45
2018-01-16T00:57:34.815Z,6.37
2018-01-16T00:58:34.735Z,6.37
2018-01-16T00:59:34.655Z,6.39
2018-01-16T01:00:34.575Z,6.51
2018-01-16T01:01:34.495Z,6.51
2018-01-16T01:02:34.414Z,6.65
2018-01-16T01:03:34.335Z,6.63
2018-01-16T01:04:34.254Z,6.70
2018-01-16T01:05:34.174Z,6.62
2018-01-16T01:06:34.093Z,6.72
2018-01-16T01:07:34.017Z,6.75
2018-01-16T01:08:33.932Z,6.72
2018-01-16T01:09:33.853Z,6.75
2018-01-16T01:10:33.773Z,6.73
2018-01-16T01:11:33.693Z,6.78
2018-01-16T01:12:33.613Z,6.69
2018-01-16T01:13:33.533Z,6.78
2018-01-16T01:14:33.452Z,6.73
2018-01-16T01:15:33.372Z,6.86
2018-01-16T01:16:33.292Z,6.90
2018-01-16T01:17:33.216Z,6.91
2018-01-16T01:18:33.130Z,6.84
2018-01-16T01:19:33.051Z,6.83
2018-01-16T01:20:32.971Z,6.78
2018-01-16T01:21:32.891Z,6.73
2018-01-16T01:22:32.810Z,6.75
2018-01-16T01:23:32.730Z,6.73
2018-01-16T01:24:32.650Z,6.75
2018-01-16T01:25:32.570Z,6.72
2018-01-16T01:26:32.489Z,6.73
2018-01-16T01:27:32.409Z,6.75
2018-01-16T01:28:32.328Z,6.75
2018-01-16T01:29:32.249Z,6.78
2018-01-16T01:30:32.168Z,6.68
2018-01-16T01:31:32.088Z,6.73
2018-01-16T01:32:32.008Z,6.73
2018-01-16T01:33:31.928Z,6.73
2018-01-16T01:34:31.847Z,6.72
2018-01-16T01:35:31.766Z,6.72
2018-01-16T01:36:31.688Z,6.81
2018-01-16T01:37:31.608Z,6.81
2018-01-16T01:38:31.526Z,6.86
2018-01-16T01:39:31.447Z,6.80
2018-01-16T01:40:31.367Z,6.72
2018-01-16T01:41:31.286Z,6.76
2018-01-16T01:42:31.206Z,6.72
2018-01-16T01:43:31.126Z,6.81
2018-01-16T01:44:31.046Z,6.80
2018-01-16T01:45:30.966Z,6.76
2018-01-16T01:46:30.886Z,6.75
2018-01-16T01:47:30.805Z,6.72
2018-01-16T01:48:30.725Z,6.73
2018-01-16T01:49:30.645Z,6.75
2018-01-16T01:50:30.565Z,6.76
2018-01-16T01:51:30.483Z,6.75
2018-01-16T01:52:30.408Z,6.75
2018-01-16T01:53:30.325Z,6.70
2018-01-16T01:54:30.244Z,6.75
2018-01-16T01:55:30.164Z,6.84
2018-01-16T01:56:30.084Z,6.87
2018-01-16T01:57:30.006Z,6.94
2018-01-16T01:58:29.924Z,6.81
2018-01-16T01:59:29.843Z,6.83
2018-01-16T02:00:29.764Z,6.93
2018-01-16T02:01:29.684Z,6.76
2018-01-16T02:02:29.603Z,6.84
2018-01-16T02:03:29.523Z,6.83
2018-01-16T02:04:29.449Z,6.99
2018-01-16T02:05:29.364Z,6.90
2018-01-16T02:06:29.282Z,6.90
2018-01-16T02:07:29.202Z,6.90
2018-01-16T02:08:29.123Z,6.80
2018-01-16T02:09:29.043Z,6.86
2018-01-16T02:10:28.963Z,6.90
2018-01-16T02:11:28.883Z,6.90
2018-01-16T02:12:28.803Z,6.93
2018-01-16T02:13:28.724Z,6.93
2018-01-16T02:14:28.642Z,6.90
2018-01-16T02:15:28.563Z,6.90
2018-01-16T02:16:28.483Z,6.87
2018-01-16T02:17:28.403Z,6.88
2018-01-16T02:18:28.322Z,6.88
2018-01-16T02:19:28.242Z,6.87
2018-01-16T02:20:28.162Z,6.87
2018-01-16T02:21:28.082Z,6.87
2018-01-16T02:22:28.002Z,6.88
2018-01-16T02:23:27.921Z,6.80
2018-01-16T02:24:27.842Z,6.75
2018-01-16T02:25:27.762Z,6.70
2018-01-16T02:26:27.681Z,6.73
2018-01-16T02:27:27.602Z,6.76
2018-01-16T02:28:27.522Z,6.69
2018-01-16T02:29:27.442Z,6.80
2018-01-16T02:30:27.360Z,6.84
2018-01-16T02:31:27.282Z,6.87
2018-01-16T02:32:27.202Z,6.87
2018-01-16T02:33:27.122Z,6.87
2018-01-16T02:34:27.042Z,6.83
2018-01-16T02:35:26.962Z,6.94
2018-01-16T02:36:26.882Z,6.91
2018-01-16T02:37:26.852Z,6.90
2018-01-16T02:38:26.721Z,6.88
2018-01-16T02:39:26.642Z,6.99
2018-01-16T02:40:26.562Z,7.01
2018-01-16T02:41:26.482Z,7.02
2018-01-16T02:42:26.404Z,6.94
2018-01-16T02:43:26.326Z,6.98
2018-01-16T02:44:26.242Z,6.94
2018-01-16T02:45:26.162Z,6.94
2018-01-16T02:46:26.082Z,6.93
2018-01-16T02:47:26.004Z,6.98
2018-01-16T02:48:25.923Z,7.09
2018-01-16T02:49:25.843Z,7.08
2018-01-16T02:50:25.763Z,7.05
2018-01-16T02:51:25.682Z,7.01
2018-01-16T02:52:25.604Z,7.05
2018-01-16T02:53:25.524Z,7.16
2018-01-16T02:54:25.443Z,7.21
2018-01-16T02:55:25.364Z,7.29
2018-01-16T02:56:25.285Z,7.24
2018-01-16T02:57:25.205Z,7.29
2018-01-16T02:58:25.124Z,7.27
2018-01-16T02:59:25.044Z,7.21
2018-01-16T03:00:24.965Z,7.09
2018-01-16T03:01:24.889Z,7.17
2018-01-16T03:02:24.806Z,7.16
2018-01-16T03:03:24.725Z,7.11
2018-01-16T03:04:24.646Z,7.12
2018-01-16T03:05:24.566Z,7.09
2018-01-16T03:06:24.486Z,7.06
2018-01-16T03:07:24.407Z,7.09
2018-01-16T03:08:24.327Z,7.17
2018-01-16T03:09:24.247Z,7.17
2018-01-16T03:10:24.167Z,7.11
2018-01-16T03:11:24.087Z,7.03
2018-01-16T03:12:24.007Z,7.03
2018-01-16T03:13:23.929Z,7.06
2018-01-16T03:14:23.849Z,7.08
2018-01-16T03:15:23.769Z,7.02
2018-01-16T03:16:23.689Z,7.09
2018-01-16T03:17:23.610Z,7.17
2018-01-16T03:18:23.529Z,7.08
2018-01-16T03:19:23.450Z,7.08
2018-01-16T03:20:23.371Z,7.09
2018-01-16T03:21:23.291Z,7.16
2018-01-16T03:22:23.214Z,7.02
2018-01-16T03:23:23.131Z,7.09
2018-01-16T03:24:23.052Z,7.12
2018-01-16T03:25:22.973Z,7.01
2018-01-16T03:26:22.892Z,7.05
2018-01-16T03:27:22.812Z,7.11
2018-01-16T03:28:22.733Z,7.03
2018-01-16T03:29:22.653Z,6.98
2018-01-16T03:30:22.576Z,7.01
2018-01-16T03:31:22.495Z,6.99
2018-01-16T03:32:22.414Z,7.01
2018-01-16T03:33:22.335Z,6.99
2018-01-16T03:34:22.255Z,7.06
2018-01-16T03:35:22.175Z,7.01
2018-01-16T03:36:22.098Z,7.01
2018-01-16T03:37:22.017Z,6.96
2018-01-16T03:38:21.937Z,6.93
2018-01-16T03:39:21.857Z,6.96
2018-01-16T03:40:21.781Z,6.93
2018-01-16T03:41:21.699Z,6.93
2018-01-16T03:42:21.618Z,6.94
2018-01-16T03:43:21.540Z,6.96
2018-01-16T03:44:21.460Z,6.91
2018-01-16T03:45:21.380Z,6.93
2018-01-16T03:46:21.301Z,6.91
2018-01-16T03:47:21.222Z,6.93
2018-01-16T03:48:21.142Z,6.90
2018-01-16T03:49:21.063Z,6.84
2018-01-16T03:50:20.984Z,6.87
2018-01-16T03:51:20.904Z,6.80
2018-01-16T03:52:20.826Z,6.88
2018-01-16T03:53:20.746Z,6.87
2018-01-16T03:54:20.665Z,6.86
2018-01-16T03:55:20.588Z,6.84
2018-01-16T03:56:20.508Z,6.93
2018-01-16T03:57:20.427Z,6.96
2018-01-16T03:58:20.348Z,7.02
2018-01-16T03:59:20.268Z,7.11
2018-01-16T04:00:20.189Z,7.06
2018-01-16T04:01:20.110Z,7.06
2018-01-16T04:02:20.029Z,6.99
2018-01-16T04:03:19.951Z,6.96
2018-01-16T04:04:19.871Z,7.01
2018-01-16T04:05:19.792Z,6.99
2018-01-16T04:06:19.712Z,7.06
2018-01-16T04:07:19.632Z,7.03
2018-01-16T04:08:19.553Z,7.01
2018-01-16T04:09:19.474Z,7.05
2018-01-16T04:10:19.396Z,7.13
2018-01-16T04:11:19.314Z,7.08
2018-01-16T04:12:19.235Z,7.01
2018-01-16T04:13:19.155Z,7.16
2018-01-16T04:14:19.076Z,7.08
2018-01-16T04:15:18.996Z,6.96
2018-01-16T04:16:18.917Z,6.93
2018-01-16T04:17:18.838Z,6.96
2018-01-16T04:18:18.757Z,6.91
2018-01-16T04:19:18.678Z,6.86
2018-01-16T04:20:18.599Z,6.88
2018-01-16T04:21:18.526Z,6.90
2018-01-16T04:22:18.440Z,6.94
2018-01-16T04:23:18.361Z,6.93
2018-01-16T04:24:18.281Z,6.90
2018-01-16T04:25:18.202Z,6.87
2018-01-16T04:26:18.123Z,6.87
2018-01-16T04:27:18.043Z,6.90
2018-01-16T04:28:17.964Z,6.88
2018-01-16T04:29:17.885Z,6.86
2018-01-16T04:30:17.805Z,6.94
2018-01-16T04:31:17.726Z,7.01
2018-01-16T04:32:17.647Z,7.02
2018-01-16T04:33:17.567Z,7.01
2018-01-16T04:34:17.527Z,6.99
2018-01-16T04:35:17.414Z,7.11
2018-01-16T04:36:17.330Z,7.09
2018-01-16T04:37:17.250Z,7.08
2018-01-16T04:38:17.170Z,7.09
2018-01-16T04:39:17.089Z,7.08
2018-01-16T04:40:17.011Z,7.06
2018-01-16T04:41:16.932Z,7.03
2018-01-16T04:42:16.852Z,7.01
2018-01-16T04:43:16.772Z,6.98
2018-01-16T04:44:16.693Z,7.03
2018-01-16T04:45:16.615Z,6.98
2018-01-16T04:46:16.534Z,6.93
2018-01-16T04:47:16.455Z,6.96
2018-01-16T04:48:16.377Z,6.99
2018-01-16T04:49:16.297Z,6.99
2018-01-16T04:50:16.217Z,6.93
2018-01-16T04:51:16.138Z,6.91
2018-01-16T04:52:16.058Z,6.94
2018-01-16T04:53:15.979Z,6.98
2018-01-16T04:54:15.904Z,7.01
2018-01-16T04:55:15.820Z,6.94
2018-01-16T04:56:15.741Z,6.88
2018-01-16T04:57:15.662Z,6.91
2018-01-16T04:58:15.582Z,6.91
2018-01-16T04:59:15.503Z,6.90
2018-01-16T05:00:15.424Z,6.93
2018-01-16T05:01:15.346Z,6.94
2018-01-16T05:02:15.264Z,6.96
2018-01-16T05:03:15.185Z,7.01
2018-01-16T05:04:15.111Z,6.98
2018-01-16T05:05:15.027Z,7.02
2018-01-16T05:06:14.947Z,6.94
2018-01-16T05:07:14.868Z,6.90
2018-01-16T05:08:14.788Z,6.88
2018-01-16T05:09:14.710Z,6.86
2018-01-16T05:10:14.629Z,6.84
2018-01-16T05:11:14.550Z,6.87
2018-01-16T05:12:14.471Z,6.90
2018-01-16T05:13:14.392Z,6.87
2018-01-16T05:14:14.312Z,6.91
2018-01-16T05:15:14.232Z,6.94
2018-01-16T05:16:14.153Z,6.88
2018-01-16T05:17:14.077Z,6.87
2018-01-16T05:18:13.994Z,6.91
2018-01-16T05:19:13.914Z,6.90
2018-01-16T05:20:13.836Z,6.93
2018-01-16T05:21:13.756Z,6.88
2018-01-16T05:22:13.677Z,6.93
2018-01-16T05:23:13.597Z,6.93
2018-01-16T05:24:13.518Z,6.90
2018-01-16T05:25:13.439Z,6.93
2018-01-16T05:26:13.359Z,7.02
2018-01-16T05:27:13.278Z,6.96
2018-01-16T05:28:13.200Z,6.86
2018-01-16T05:29:13.121Z,6.94
2018-01-16T05:30:13.039Z,6.91
2018-01-16T05:31:12.960Z,6.96
2018-01-16T05:32:12.883Z,6.93
2018-01-16T05:33:12.802Z,6.96
2018-01-16T05:34:12.722Z,6.93
2018-01-16T05:35:12.642Z,6.99
2018-01-16T05:36:12.563Z,6.90
2018-01-16T05:37:12.484Z,6.90
2018-01-16T05:38:12.404Z,6.81
2018-01-16T05:39:12.324Z,6.88
2018-01-16T05:40:12.244Z,6.88
2018-01-16T05:41:12.166Z,6.93
2018-01-16T05:42:12.085Z,6.90
2018-01-16T05:43:12.005Z,6.88
2018-01-16T05:44:11.925Z,6.84
2018-01-16T05:45:11.845Z,6.73
2018-01-16T05:46:11.765Z,6.83
2018-01-16T05:47:11.686Z,6.80
2018-01-16T05:48:11.606Z,6.73
2018-01-16T05:49:11.527Z,6.73
2018-01-16T05:50:11.447Z,6.84
2018-01-16T05:51:11.367Z,6.87
2018-01-16T05:52:11.287Z,6.94
2018-01-16T05:53:11.208Z,6.80
2018-01-16T05:54:11.127Z,6.80
2018-01-16T05:55:11.048Z,6.87
2018-01-16T05:56:10.968Z,6.84
2018-01-16T05:57:10.889Z,6.78
2018-01-16T05:58:10.808Z,6.83
2018-01-16T05:59:10.728Z,6.78
2018-01-16T06:00:10.649Z,6.86
2018-01-16T06:01:10.569Z,6.78
2018-01-16T06:02:10.489Z,6.76
2018-01-16T06:03:10.408Z,6.69
2018-01-16T06:04:10.330Z,6.69
2018-01-16T06:05:10.250Z,6.68
2018-01-16T06:06:10.169Z,6.66
2018-01-16T06:07:10.089Z,6.68
2018-01-16T06:08:10.010Z,6.68
2018-01-16T06:09:09.929Z,6.72
2018-01-16T06:10:09.849Z,6.68
2018-01-16T06:11:09.770Z,6.69
2018-01-16T06:12:09.753Z,6.70
2018-01-16T06:13:09.610Z,6.70
2018-01-16T06:14:09.530Z,6.72
2018-01-16T06:15:09.450Z,6.68
2018-01-16T06:16:09.369Z,6.72
2018-01-16T06:17:09.289Z,6.68
2018-01-16T06:18:09.208Z,6.72
2018-01-16T06:19:09.130Z,6.72
2018-01-16T06:20:09.050Z,6.70
2018-01-16T06:21:08.968Z,6.73
2018-01-16T06:22:08.888Z,6.70
2018-01-16T06:23:08.808Z,6.63
2018-01-16T06:24:08.729Z,6.68
2018-01-16T06:25:08.649Z,6.60
2018-01-16T06:26:08.573Z,6.60
2018-01-16T06:27:08.488Z,6.54
2018-01-16T06:28:08.408Z,6.50
2018-01-16T06:29:08.330Z,6.55
2018-01-16T06:30:08.248Z,6.60
2018-01-16T06:31:08.167Z,6.68
2018-01-16T06:32:08.087Z,6.72
2018-01-16T06:33:08.008Z,6.70
2018-01-16T06:34:07.927Z,6.76
2018-01-16T06:35:07.847Z,6.59
2018-01-16T06:36:07.767Z,6.55
2018-01-16T06:37:07.686Z,6.63
2018-01-16T06:38:07.606Z,6.65
2018-01-16T06:39:07.526Z,6.60
2018-01-16T06:40:07.446Z,6.68
2018-01-16T06:41:07.365Z,6.69
2018-01-16T06:42:07.286Z,6.75
2018-01-16T06:43:07.205Z,6.75
2018-01-16T06:44:07.126Z,6.69
2018-01-16T06:45:07.046Z,6.65
2018-01-16T06:46:06.965Z,6.76
2018-01-16T06:47:06.886Z,6.66
2018-01-16T06:48:06.805Z,6.52
2018-01-16T06:49:06.725Z,6.51
2018-01-16T06:50:06.642Z,6.54
2018-01-16T06:51:06.563Z,6.51
2018-01-16T06:52:06.484Z,6.54
2018-01-16T06:53:06.403Z,6.57
2018-01-16T06:54:06.322Z,6.54
2018-01-16T06:55:06.242Z,6.66
2018-01-16T06:56:06.162Z,6.63
2018-01-16T06:57:06.082Z,6.51
2018-01-16T06:58:06.000Z,6.63
2018-01-16T06:59:05.920Z,6.63
2018-01-16T07:00:05.846Z,6.52
2018-01-16T07:01:05.760Z,6.66
2018-01-16T07:02:05.679Z,6.59
2018-01-16T07:03:05.604Z,6.54
2018-01-16T07:04:05.519Z,6.54
2018-01-16T07:05:05.439Z,6.68
2018-01-16T07:06:05.360Z,6.48
2018-01-16T07:07:05.278Z,6.54
2018-01-16T07:08:05.198Z,6.52
2018-01-16T07:09:05.119Z,6.51
2018-01-16T07:10:05.039Z,6.52
2018-01-16T07:11:04.956Z,6.51
2018-01-16T07:12:04.877Z,6.52
2018-01-16T07:13:04.797Z,6.51
2018-01-16T07:14:04.716Z,6.57
2018-01-16T07:15:04.636Z,6.54
2018-01-16T07:16:04.556Z,6.50
2018-01-16T07:17:04.481Z,6.36
2018-01-16T07:18:04.395Z,6.50
2018-01-16T07:19:04.316Z,6.59
2018-01-16T07:20:04.235Z,6.62
2018-01-16T07:21:04.155Z,6.70
2018-01-16T07:22:04.074Z,6.72
2018-01-16T07:23:03.994Z,6.73
2018-01-16T07:24:03.920Z,6.70
2018-01-16T07:25:03.834Z,6.68
2018-01-16T07:26:03.753Z,6.72
2018-01-16T07:27:03.673Z,6.69
2018-01-16T07:28:03.594Z,6.70
2018-01-16T07:29:03.514Z,6.73
2018-01-16T07:30:03.433Z,6.62
2018-01-16T07:31:03.353Z,6.68
2018-01-16T07:32:03.273Z,6.60
2018-01-16T07:33:03.193Z,6.55
2018-01-16T07:34:03.113Z,6.54
2018-01-16T07:35:03.034Z,6.63
2018-01-16T07:36:02.952Z,6.63
2018-01-16T07:37:02.872Z,6.62
2018-01-16T07:38:02.792Z,6.63
2018-01-16T07:39:02.712Z,6.57
2018-01-16T07:40:02.633Z,6.59
2018-01-16T07:41:02.553Z,6.55
2018-01-16T07:42:02.472Z,6.54
2018-01-16T07:43:02.392Z,6.59
2018-01-16T07:44:02.313Z,6.52
2018-01-16T07:45:02.233Z,6.52
2018-01-16T07:46:02.153Z,6.55
2018-01-16T07:47:02.073Z,6.54
2018-01-16T07:48:01.992Z,6.52
2018-01-16T07:49:01.913Z,6.60
2018-01-16T07:50:01.832Z,6.55
2018-01-16T07:51:01.752Z,6.65
2018-01-16T07:52:01.673Z,6.57
2018-01-16T07:53:01.592Z,6.62
2018-01-16T07:54:01.512Z,6.72
2018-01-16T07:55:01.433Z,6.63
2018-01-16T07:56:01.352Z,6.66
2018-01-16T07:57:01.274Z,6.69
2018-01-16T07:58:01.192Z,6.73
2018-01-16T07:59:01.112Z,6.73
2018-01-16T08:00:01.032Z,6.78
2018-01-16T08:01:00.952Z,6.73
2018-01-16T08:02:00.872Z,6.80
2018-01-16T08:03:00.790Z,6.81
2018-01-16T08:04:00.712Z,6.90
2018-01-16T08:05:00.632Z,6.88
2018-01-16T08:06:00.551Z,6.90
2018-01-16T08:07:00.471Z,6.88
2018-01-16T08:08:00.391Z,6.86
2018-01-16T08:09:00.312Z,6.96
2018-01-16T08:10:00.230Z,6.81
2018-01-16T08:11:00.151Z,6.94
2018-01-16T08:12:00.073Z,6.90
2018-01-16T08:12:59.992Z,6.90
2018-01-16T08:13:59.911Z,6.90
2018-01-16T08:14:59.831Z,6.88
2018-01-16T08:15:59.752Z,6.94
2018-01-16T08:16:59.672Z,6.91
2018-01-16T08:17:59.591Z,6.96
2018-01-16T08:18:59.513Z,6.93
2018-01-16T08:19:59.431Z,6.99
2018-01-16T08:20:59.352Z,7.02
2018-01-16T08:21:59.273Z,6.91
2018-01-16T08:22:59.193Z,6.93
2018-01-16T08:23:59.112Z,6.91
2018-01-16T08:24:59.032Z,7.01
2018-01-16T08:25:58.952Z,6.91
2018-01-16T08:26:58.872Z,6.96
2018-01-16T08:27:58.791Z,6.96
2018-01-16T08:28:58.711Z,6.93
2018-01-16T08:29:58.630Z,6.94
2018-01-16T08:30:58.552Z,6.94
2018-01-16T08:31:58.472Z,6.94
2018-01-16T08:32:58.393Z,6.94
2018-01-16T08:33:58.312Z,6.90
2018-01-16T08:34:58.231Z,6.88
2018-01-16T08:35:58.153Z,6.99
2018-01-16T08:36:58.073Z,6.99
2018-01-16T08:37:57.996Z,7.02
2018-01-16T08:38:57.913Z,7.05
2018-01-16T08:39:57.833Z,6.98
2018-01-16T08:40:57.754Z,7.13
2018-01-16T08:41:57.673Z,7.08
2018-01-16T08:42:57.594Z,7.09
2018-01-16T08:43:57.515Z,7.11
2018-01-16T08:44:57.436Z,7.11
2018-01-16T08:45:57.355Z,7.03
2018-01-16T08:46:57.275Z,7.02
2018-01-16T08:47:57.195Z,7.02
2018-01-16T08:48:57.116Z,7.06
2018-01-16T08:49:57.035Z,7.11
2018-01-16T08:50:56.956Z,7.03
2018-01-16T08:51:56.877Z,7.05
2018-01-16T08:52:56.797Z,6.99
2018-01-16T08:53:56.717Z,6.98
2018-01-16T08:54:56.637Z,6.91
2018-01-16T08:55:56.558Z,6.99
2018-01-16T08:56:56.479Z,6.94
2018-01-16T08:57:56.399Z,6.90
2018-01-16T08:58:56.320Z,6.94
2018-01-16T08:59:56.240Z,6.84
2018-01-16T09:00:56.161Z,6.88
2018-01-16T09:01:56.080Z,6.91
2018-01-16T09:02:56.002Z,6.87
2018-01-16T09:03:55.921Z,6.76
2018-01-16T09:04:55.843Z,6.84
2018-01-16T09:05:55.762Z,6.84
2018-01-16T09:06:55.681Z,6.84
2018-01-16T09:07:55.603Z,6.81
2018-01-16T09:08:55.524Z,6.73
2018-01-16T09:09:55.443Z,6.75
2018-01-16T09:10:55.364Z,6.70
2018-01-16T09:11:55.283Z,6.68
2018-01-16T09:12:55.205Z,6.66
2018-01-16T09:13:55.125Z,6.59
2018-01-16T09:14:55.045Z,6.62
2018-01-16T09:15:54.965Z,6.52
2018-01-16T09:16:54.886Z,6.63
2018-01-16T09:17:54.805Z,6.76
2018-01-16T09:18:54.726Z,6.72
2018-01-16T09:19:54.646Z,6.70
2018-01-16T09:20:54.566Z,6.73
2018-01-16T09:21:54.485Z,6.73
2018-01-16T09:22:54.405Z,6.72
2018-01-16T09:23:54.326Z,6.81
2018-01-16T09:24:54.246Z,6.86
2018-01-16T09:25:54.165Z,6.80
2018-01-16T09:26:54.089Z,6.90
2018-01-16T09:27:54.006Z,6.91
2018-01-16T09:28:53.926Z,6.87
2018-01-16T09:29:53.846Z,6.83
2018-01-16T09:30:53.767Z,6.87
2018-01-16T09:31:53.687Z,6.78
2018-01-16T09:32:53.608Z,6.84
2018-01-16T09:33:53.528Z,6.84
2018-01-16T09:34:53.448Z,6.81
2018-01-16T09:35:53.369Z,6.87
2018-01-16T09:36:53.289Z,6.83
2018-01-16T09:37:53.211Z,6.81
2018-01-16T09:38:53.130Z,6.80
2018-01-16T09:39:53.050Z,6.88
2018-01-16T09:40:52.970Z,6.87
2018-01-16T09:41:52.890Z,6.83
2018-01-16T09:42:52.811Z,6.86
2018-01-16T09:43:52.731Z,6.88
2018-01-16T09:44:52.651Z,6.93
2018-01-16T09:45:52.571Z,6.99
2018-01-16T09:46:52.492Z,7.09
2018-01-16T09:47:52.413Z,7.06
2018-01-16T09:48:52.336Z,7.03
2018-01-16T09:49:52.253Z,6.96
2018-01-16T09:50:52.174Z,7.01
2018-01-16T09:51:52.095Z,7.05
2018-01-16T09:52:52.017Z,7.06
2018-01-16T09:53:51.936Z,6.99
2018-01-16T09:54:51.857Z,6.94
2018-01-16T09:55:51.779Z,6.98
2018-01-16T09:56:51.700Z,7.02
2018-01-16T09:57:51.618Z,6.98
2018-01-16T09:58:51.540Z,6.96
2018-01-16T09:59:51.460Z,6.93
2018-01-16T10:00:51.381Z,6.94
2018-01-16T10:01:51.302Z,6.93
2018-01-16T10:02:51.222Z,7.01
2018-01-16T10:03:51.143Z,6.99
2018-01-16T10:04:51.064Z,6.99
2018-01-16T10:05:50.990Z,7.02
2018-01-16T10:06:50.905Z,7.05
2018-01-16T10:07:50.826Z,7.11
2018-01-16T10:08:50.747Z,7.09
2018-01-16T10:09:50.668Z,7.19
2018-01-16T10:10:50.589Z,7.13
2018-01-16T10:11:50.510Z,7.20
2018-01-16T10:12:50.431Z,7.17
2018-01-16T10:13:50.352Z,7.08
2018-01-16T10:14:50.274Z,7.11
2018-01-16T10:15:50.194Z,7.09
2018-01-16T10:16:50.115Z,7.09
2018-01-16T10:17:50.036Z,7.12
2018-01-16T10:18:49.957Z,7.11
2018-01-16T10:19:49.879Z,7.06
2018-01-16T10:20:49.800Z,6.98
2018-01-16T10:21:49.720Z,6.91
2018-01-16T10:22:49.642Z,6.94
2018-01-16T10:23:49.563Z,6.90
2018-01-16T10:24:49.484Z,6.87
2018-01-16T10:25:49.406Z,6.96
2018-01-16T10:26:49.325Z,6.90
2018-01-16T10:27:49.248Z,6.83
2018-01-16T10:28:49.168Z,6.87
2018-01-16T10:29:49.089Z,6.84
2018-01-16T10:30:49.010Z,6.83
2018-01-16T10:31:48.930Z,6.75
2018-01-16T10:32:48.853Z,6.75
2018-01-16T10:33:48.772Z,6.70
2018-01-16T10:34:48.693Z,6.69
2018-01-16T10:35:48.617Z,6.70
2018-01-16T10:36:48.535Z,6.69
2018-01-16T10:37:48.456Z,6.65
2018-01-16T10:38:48.380Z,6.69
2018-01-16T10:39:48.298Z,6.68
2018-01-16T10:40:48.218Z,6.68
2018-01-16T10:41:48.138Z,6.70
2018-01-16T10:42:48.061Z,6.51
2018-01-16T10:43:47.981Z,6.65
2018-01-16T10:44:47.900Z,6.62
2018-01-16T10:45:47.820Z,6.68
2018-01-16T10:46:47.740Z,6.55
2018-01-16T10:47:47.660Z,6.54
2018-01-16T10:48:47.580Z,6.55
2018-01-16T10:49:47.500Z,6.50
2018-01-16T10:50:47.420Z,6.66
2018-01-16T10:51:47.340Z,6.68
2018-01-16T10:52:47.260Z,6.66
2018-01-16T10:53:47.180Z,6.63
2018-01-16T10:54:47.101Z,6.59
2018-01-16T10:55:47.022Z,6.51
2018-01-16T10:56:46.941Z,6.54
2018-01-16T10:57:46.860Z,6.54
2018-01-16T10:58:46.780Z,6.54
2018-01-16T10:59:46.700Z,6.51
2018-01-16T11:00:46.620Z,6.47
2018-01-16T11:01:46.540Z,6.44
2018-01-16T11:02:46.501Z,6.39
2018-01-16T11:03:46.379Z,6.37
2018-01-16T11:04:46.299Z,6.29
2018-01-16T11:05:46.218Z,6.33
2018-01-16T11:06:46.138Z,6.27
2018-01-16T11:07:46.058Z,6.24
2018-01-16T11:08:45.977Z,6.27
2018-01-16T11:09:45.896Z,6.30
2018-01-16T11:10:45.816Z,6.33
2018-01-16T11:11:45.736Z,6.30
2018-01-16T11:12:45.656Z,6.18
2018-01-16T11:13:45.575Z,6.21
2018-01-16T11:14:45.494Z,6.14
2018-01-16T11:15:45.414Z,6.24
2018-01-16T11:16:45.334Z,6.08
2018-01-16T11:17:45.254Z,6.10
2018-01-16T11:18:45.173Z,6.07
2018-01-16T11:19:45.092Z,6.10
2018-01-16T11:20:45.012Z,6.07
2018-01-16T11:21:44.930Z,6.24
2018-01-16T11:22:44.851Z,6.84
2018-01-16T11:23:44.776Z,7.31
2018-01-16T11:24:44.691Z,7.52
2018-01-16T11:25:44.610Z,7.96
2018-01-16T11:26:44.530Z,8.37
2018-01-16T11:27:44.450Z,7.72
2018-01-16T11:28:44.371Z,7.26
2018-01-16T11:29:44.290Z,7.34
2018-01-16T11:30:44.213Z,7.86
2018-01-16T11:31:44.133Z,8.29
2018-01-16T11:32:44.055Z,8.68
2018-01-16T11:33:43.976Z,9.40
2018-01-16T11:34:43.897Z,9.35
2018-01-16T11:35:43.820Z,7.97
2018-01-16T11:36:43.742Z,7.75
2018-01-16T11:37:43.664Z,8.27
2018-01-16T11:38:43.586Z,8.58
2018-01-16T11:39:43.509Z,8.94
2018-01-16T11:40:43.432Z,9.43
2018-01-16T11:41:43.354Z,9.74
2018-01-16T11:42:43.277Z,9.92
2018-01-16T11:43:43.201Z,9.28
2018-01-16T11:44:43.124Z,8.32
2018-01-16T11:45:43.047Z,7.83
2018-01-16T11:46:42.971Z,7.81
2018-01-16T11:47:42.896Z,7.59
2018-01-16T11:48:42.819Z,7.91
2018-01-16T11:49:42.742Z,7.37
2018-01-16T11:50:42.666Z,6.98
2018-01-16T11:51:42.593Z,6.91
2018-01-16T11:52:42.513Z,7.35
2018-01-16T11:53:42.436Z,7.64
2018-01-16T11:54:42.363Z,7.73
2018-01-16T11:55:42.280Z,8.39
2018-01-16T11:56:42.204Z,8.80
2018-01-16T11:57:42.127Z,9.03
2018-01-16T11:58:42.051Z,9.58
2018-01-16T11:59:41.974Z,9.50
2018-01-16T12:00:41.898Z,8.98
2018-01-16T12:01:41.825Z,8.90
2018-01-16T12:02:41.744Z,8.33
2018-01-16T12:03:41.668Z,8.19
2018-01-16T12:04:41.592Z,8.17
2018-01-16T12:05:41.514Z,8.00
2018-01-16T12:06:41.438Z,7.45
2018-01-16T12:07:41.362Z,7.16
2018-01-16T12:08:41.286Z,7.12
2018-01-16T12:09:41.208Z,7.29
2018-01-16T12:10:41.131Z,7.44
2018-01-16T12:11:41.054Z,7.17
2018-01-16T12:12:40.978Z,7.11
2018-01-16T12:13:40.900Z,7.06
2018-01-16T12:14:40.823Z,6.81
2018-01-16T12:15:40.745Z,6.87
2018-01-16T12:16:40.667Z,6.90
2018-01-16T12:17:40.590Z,6.93
2018-01-16T12:18:40.511Z,7.08
2018-01-16T12:19:40.434Z,7.09
2018-01-16T12:20:40.356Z,7.08
2018-01-16T12:21:40.280Z,7.16
2018-01-16T12:22:40.200Z,7.34
2018-01-16T12:23:40.127Z,7.29
2018-01-16T12:24:40.045Z,7.59
2018-01-16T12:25:39.965Z,7.73
2018-01-16T12:26:39.893Z,8.00
2018-01-16T12:27:39.810Z,8.52
2018-01-16T12:28:39.733Z,9.09
2018-01-16T12:29:39.653Z,9.52
2018-01-16T12:30:39.576Z,9.82
2018-01-16T12:31:39.500Z,9.34
2018-01-16T12:32:39.423Z,8.68
2018-01-16T12:33:39.345Z,8.22
2018-01-16T12:34:39.268Z,7.90
2018-01-16T12:35:39.192Z,8.18
2018-01-16T12:36:39.118Z,8.30
2018-01-16T12:37:39.038Z,8.80
2018-01-16T12:38:38.960Z,8.36
2018-01-16T12:39:38.885Z,8.24
2018-01-16T12:40:38.811Z,8.18
2018-01-16T12:41:38.732Z,8.42
2018-01-16T12:42:38.655Z,8.22
2018-01-16T12:43:38.579Z,8.32
2018-01-16T12:44:38.504Z,8.01
2018-01-16T12:45:38.424Z,8.04
2018-01-16T12:46:38.348Z,8.14
2018-01-16T12:47:38.271Z,8.00
2018-01-16T12:48:38.195Z,7.96
2018-01-16T12:49:38.117Z,7.99
2018-01-16T12:50:38.040Z,7.88
2018-01-16T12:51:37.964Z,7.97
2018-01-16T12:52:37.887Z,8.04
2018-01-16T12:53:37.808Z,8.01
2018-01-16T12:54:37.732Z,7.88
2018-01-16T12:55:37.654Z,8.42
2018-01-16T12:56:37.577Z,8.34
2018-01-16T12:57:37.499Z,7.97
2018-01-16T12:58:37.421Z,7.55
2018-01-16T12:59:37.346Z,7.30
2018-01-16T13:00:37.268Z,7.13
2018-01-16T13:01:37.190Z,7.12
2018-01-16T13:02:37.113Z,7.06
2018-01-16T13:03:37.035Z,7.06
2018-01-16T13:04:36.957Z,7.02
2018-01-16T13:05:36.878Z,6.99
2018-01-16T13:06:36.800Z,6.90
2018-01-16T13:07:36.722Z,7.01
2018-01-16T13:08:36.643Z,6.93
2018-01-16T13:09:36.568Z,6.91
2018-01-16T13:10:36.486Z,6.86
2018-01-16T13:11:36.407Z,6.90
2018-01-16T13:12:36.329Z,6.88
2018-01-16T13:13:36.249Z,6.90
2018-01-16T13:14:36.170Z,6.83
2018-01-16T13:15:36.093Z,6.88
2018-01-16T13:16:36.013Z,6.84
2018-01-16T13:17:35.933Z,6.87